Prairie Du Chien, WI

6:39 PM CDT on July 25, 2014 (GMT -0500)
Prairie du Chien (KWIPRAIR6) Elev 681 ft | 43.04 °N, 91.14 °W | Change Station

Current weather conditions updated 3 seconds ago

Overcast
Overcast
75.2 °F
Feels Like 76 °F
N
0.5
Wind Variable Wind from NNE
Gusts 3.8 mph

Tomorrow is forecast to be Warmer than today.

Today
High -- | Low -- °F
--% Chance of Precip.
Yesterday
High -- | Low -- °F
Precip. -- in
5:48 AM 8:33 PM
Waning Crescent, 1% visible
Pressure 29.85 in
Visibility 10.0 miles
Clouds Scattered Clouds 2200 ft
Mostly Cloudy 2700 ft
Overcast 3700 ft
Heat Index 76 °F
Dew Point 69 °F
Humidity 80%
Rainfall 0.00 in
Snow Depth Not available.
UV 0.0 out of 12
Pollen 6.00 out of 12
Air Quality Not available.
Flu Activity Not available.
METAR KPDC 252314Z AUTO 11007KT 10SM SCT022 BKN027 OVC037 23/17 A2985 RMK AO2

More Conditions Fewer Conditions

Pressure 29.85 in
Visibility 10.0 miles
Clouds Scattered Clouds 2200 ft
Mostly Cloudy 2700 ft
Overcast 3700 ft
Heat Index 76 °F
Dew Point 69 °F
Humidity 80%
Rainfall 0.00 in
Snow Depth Not available.
UV 0.0 out of 12
Pollen 6.00 out of 12
Air Quality Not available.
Flu Activity Not available.
METAR KPDC 252314Z AUTO 11007KT 10SM SCT022 BKN027 OVC037 23/17 A2985 RMK AO2

More Conditions Fewer Conditions

10-Day Weather Forecast

Almanac

Astronomy

Jul. 25, 2014 Rise Set
Actual Time 5:48 AM CDT 8:33 PM CDT
Civil Twilight 5:15 AM CDT 9:06 PM CDT
Nautical Twilight 4:33 AM CDT 9:47 PM CDT
Astronomical Twilight 3:45 AM CDT 10:35 PM CDT
Moon 4:48 AM CDT 7:29 PM CDT
Length of Visible Light 15h 51m
Length of Day
14h 45m
Tomorrow will be 1m 59s shorter.
Waning Crescent, 1% of the Moon is Illuminated
Today
Waning Crescent
Jul 26
New
Aug 3
First Quarter
Aug 10
Full
Aug 17
Last Quarter

Today's Extremes

State Highs State Lows

Community

WunderPhotos

Upload Photos

1,737,445 photos uploaded!

Nearby

Snow Depth

Station Depth Elevation
No new snow has been reported.

Earthquake Activity

City Distance Mag. Time & Date
No recent earthquake activity has been reported nearby.
Minimum magnitude displayed is 2.5.

Coastal Water Temperatures

Place Temperature
No Stations Reporting

Nearby Weather Stations

Station Location Temp. Heat Index Dew Point Humidity Wind Precip. Elev Updated Type
Prairie du Chien, Prairie Du Chien, WI 75.2 °F 76 °F 69 °F 80% NNE  at  0.5 mph 0.00 in / hr 681 ft 6:39 PM CDT Rapid Fire
Paint Creek Township, Waterville, IA 71.9 °F 72 °F 66 °F 81% SW  at  0.0 mph 0.00 in / hr 951 ft 6:30 PM CDT Normal
Monona, IA 71.5 °F 71 °F 66 °F 84% SE  at  7.0 mph 0.00 in / hr 1214 ft 6:38 PM CDT Normal
Postville, IA 72.0 °F 71 °F 67 °F 85% South  at  3.0 mph 0.00 in / hr 1181 ft 6:38 PM CDT Normal
RAWS BOSCOBEL WI, Boscobel, WI 73 °F 75 °F 64 °F 73% ESE  at  5 mph 0.00 in / hr 672 ft 6:03 PM CDT MADIS

Show More Stations Show Fewer Stations